createdAt,value
2018-02-22T00:00:08.768Z,0.00
2018-02-22T00:01:08.823Z,0.00
2018-02-22T00:02:08.784Z,0.00
2018-02-22T00:03:08.797Z,0.00
2018-02-22T00:04:08.778Z,0.00
2018-02-22T00:05:08.798Z,0.00
2018-02-22T00:06:08.799Z,0.00
2018-02-22T00:07:08.797Z,0.00
2018-02-22T00:08:08.812Z,0.00
2018-02-22T00:09:08.880Z,0.00
2018-02-22T00:10:08.880Z,0.00
2018-02-22T00:11:08.811Z,0.00
2018-02-22T00:12:08.873Z,0.00
2018-02-22T00:13:08.842Z,0.00
2018-02-22T00:14:08.871Z,0.00
2018-02-22T00:15:08.853Z,0.00
2018-02-22T00:16:08.847Z,0.00
2018-02-22T00:17:08.848Z,0.00
2018-02-22T00:18:08.840Z,0.00
2018-02-22T00:19:08.850Z,0.00
2018-02-22T00:20:08.848Z,0.00
2018-02-22T00:21:08.853Z,0.00
2018-02-22T00:22:08.958Z,0.00
2018-02-22T00:23:08.880Z,0.00
2018-02-22T00:24:08.882Z,0.00
2018-02-22T00:25:08.889Z,0.00
2018-02-22T00:26:08.889Z,0.00
2018-02-22T00:27:08.880Z,0.00
2018-02-22T00:28:08.881Z,0.00
2018-02-22T00:29:08.892Z,0.00
2018-02-22T00:30:08.890Z,0.00
2018-02-22T00:31:08.925Z,0.00
2018-02-22T00:32:08.980Z,0.00
2018-02-22T00:33:08.912Z,0.00
2018-02-22T00:34:08.944Z,0.00
2018-02-22T00:35:08.959Z,0.00
2018-02-22T00:36:08.938Z,0.00
2018-02-22T00:37:08.917Z,0.00
2018-02-22T00:38:08.945Z,0.00
2018-02-22T00:39:08.996Z,0.00
2018-02-22T00:40:08.947Z,0.00
2018-02-22T00:41:08.940Z,0.00
2018-02-22T00:42:08.934Z,0.00
2018-02-22T00:43:08.959Z,0.00
2018-02-22T00:44:08.946Z,0.00
2018-02-22T00:45:08.965Z,0.00
2018-02-22T00:46:08.971Z,0.00
2018-02-22T00:47:08.991Z,0.00
2018-02-22T00:48:09.035Z,0.00
2018-02-22T00:49:08.991Z,0.00
2018-02-22T00:50:08.995Z,0.00
2018-02-22T00:51:09.013Z,0.00
2018-02-22T00:52:09.059Z,0.00
2018-02-22T00:53:08.988Z,0.00
2018-02-22T00:54:08.991Z,0.00
2018-02-22T00:55:09.001Z,0.00
2018-02-22T00:56:09.008Z,0.00
2018-02-22T00:57:09.039Z,0.00
2018-02-22T00:58:09.035Z,0.00
2018-02-22T00:59:09.222Z,0.00
2018-02-22T01:00:09.023Z,0.00
2018-02-22T01:01:09.082Z,0.00
2018-02-22T01:02:09.040Z,0.00
2018-02-22T01:03:09.089Z,0.00
2018-02-22T01:04:09.056Z,0.00
2018-02-22T01:05:09.061Z,0.00
2018-02-22T01:06:09.060Z,0.00
2018-02-22T01:07:09.065Z,0.00
2018-02-22T01:08:09.035Z,0.00
2018-02-22T01:09:09.082Z,0.00
2018-02-22T01:10:09.050Z,0.00
2018-02-22T01:11:09.065Z,0.00
2018-02-22T01:12:09.424Z,0.00
2018-02-22T01:13:09.060Z,0.00
2018-02-22T01:14:09.078Z,0.00
2018-02-22T01:15:09.093Z,0.00
2018-02-22T01:16:09.131Z,0.00
2018-02-22T01:17:09.085Z,0.00
2018-02-22T01:18:09.093Z,0.00
2018-02-22T01:19:09.099Z,0.00
2018-02-22T01:20:09.097Z,0.00
2018-02-22T01:21:09.301Z,0.00
2018-02-22T01:22:09.097Z,0.00
2018-02-22T01:23:09.201Z,0.00
2018-02-22T01:24:09.121Z,0.00
2018-02-22T01:25:09.127Z,0.00
2018-02-22T01:26:09.849Z,0.00
2018-02-22T01:27:09.167Z,0.00
2018-02-22T01:28:09.148Z,0.00
2018-02-22T01:29:09.150Z,0.00
2018-02-22T01:30:09.142Z,0.00
2018-02-22T01:31:09.150Z,0.00
2018-02-22T01:32:09.169Z,0.00
2018-02-22T01:33:09.145Z,0.00
2018-02-22T01:34:09.156Z,0.00
2018-02-22T01:35:09.157Z,0.00
2018-02-22T01:36:09.189Z,0.00
2018-02-22T01:37:09.152Z,0.00
2018-02-22T01:38:09.216Z,0.00
2018-02-22T01:39:09.218Z,0.00
2018-02-22T01:40:09.174Z,0.00
2018-02-22T01:41:09.166Z,0.00
2018-02-22T01:42:09.188Z,0.00
2018-02-22T01:43:09.216Z,0.00
2018-02-22T01:44:09.255Z,0.00
2018-02-22T01:45:09.216Z,0.00
2018-02-22T01:46:09.213Z,0.00
2018-02-22T01:47:09.212Z,0.00
2018-02-22T01:48:09.203Z,0.00
2018-02-22T01:49:09.196Z,0.00
2018-02-22T01:50:09.240Z,0.00
2018-02-22T01:51:09.216Z,0.00
2018-02-22T01:52:09.216Z,0.00
2018-02-22T01:53:09.235Z,0.00
2018-02-22T01:54:09.221Z,0.00
2018-02-22T01:55:09.233Z,0.00
2018-02-22T01:56:09.235Z,0.00
2018-02-22T01:57:09.251Z,0.00
2018-02-22T01:58:09.244Z,0.00
2018-02-22T01:59:09.250Z,0.00
2018-02-22T02:00:09.262Z,0.00
2018-02-22T02:01:09.245Z,0.00
2018-02-22T02:02:09.268Z,0.00
2018-02-22T02:03:09.269Z,0.00
2018-02-22T02:04:09.271Z,0.00
2018-02-22T02:05:09.268Z,0.00
2018-02-22T02:06:09.284Z,0.00
2018-02-22T02:07:09.273Z,0.00
2018-02-22T02:08:09.263Z,0.00
2018-02-22T02:09:09.295Z,0.00
2018-02-22T02:10:09.302Z,0.00
2018-02-22T02:11:09.306Z,0.00
2018-02-22T02:12:09.301Z,0.00
2018-02-22T02:13:09.296Z,0.00
2018-02-22T02:14:09.298Z,0.00
2018-02-22T02:15:09.313Z,0.00
2018-02-22T02:16:09.374Z,0.00
2018-02-22T02:17:09.338Z,0.00
2018-02-22T02:18:09.318Z,0.00
2018-02-22T02:19:09.318Z,0.00
2018-02-22T02:20:09.372Z,0.00
2018-02-22T02:21:09.326Z,0.00
2018-02-22T02:22:09.342Z,0.00
2018-02-22T02:23:09.335Z,0.00
2018-02-22T02:24:09.342Z,0.00
2018-02-22T02:25:09.339Z,0.00
2018-02-22T02:26:09.375Z,0.00
2018-02-22T02:27:09.349Z,0.00
2018-02-22T02:28:09.340Z,0.00
2018-02-22T02:29:09.350Z,0.00
2018-02-22T02:30:09.405Z,0.00
2018-02-22T02:31:09.381Z,0.00
2018-02-22T02:32:09.414Z,0.00
2018-02-22T02:33:09.414Z,0.00
2018-02-22T02:34:09.372Z,0.00
2018-02-22T02:35:09.398Z,0.00
2018-02-22T02:36:09.401Z,0.00
2018-02-22T02:37:09.386Z,0.00
2018-02-22T02:38:09.436Z,0.00
2018-02-22T02:39:09.384Z,0.00
2018-02-22T02:40:09.395Z,0.00
2018-02-22T02:41:09.399Z,0.00
2018-02-22T02:42:09.423Z,0.00
2018-02-22T02:43:09.411Z,0.00
2018-02-22T02:44:09.460Z,0.00
2018-02-22T02:45:09.401Z,0.00
2018-02-22T02:46:09.410Z,0.00
2018-02-22T02:47:09.419Z,0.00
2018-02-22T02:48:09.508Z,0.00
2018-02-22T02:49:09.420Z,0.00
2018-02-22T02:50:09.443Z,0.00
2018-02-22T02:51:09.427Z,0.00
2018-02-22T02:52:09.430Z,0.00
2018-02-22T02:53:09.455Z,0.00
2018-02-22T02:54:09.434Z,0.00
2018-02-22T02:55:09.450Z,0.00
2018-02-22T02:56:09.445Z,0.00
2018-02-22T02:57:09.477Z,0.00
2018-02-22T02:58:09.458Z,0.00
2018-02-22T02:59:09.471Z,0.00
2018-02-22T03:00:09.483Z,0.00
2018-02-22T03:01:10.338Z,0.00
2018-02-22T03:02:09.504Z,0.00
2018-02-22T03:03:09.508Z,0.00
2018-02-22T03:04:09.532Z,0.00
2018-02-22T03:05:09.484Z,0.00
2018-02-22T03:06:09.488Z,0.00
2018-02-22T03:07:09.481Z,0.00
2018-02-22T03:08:09.484Z,0.00
2018-02-22T03:09:09.522Z,0.00
2018-02-22T03:10:09.519Z,0.00
2018-02-22T03:11:09.525Z,0.00
2018-02-22T03:12:09.512Z,0.00
2018-02-22T03:13:09.540Z,0.00
2018-02-22T03:14:09.509Z,0.00
2018-02-22T03:15:09.509Z,0.00
2018-02-22T03:16:09.521Z,0.00
2018-02-22T03:17:09.519Z,0.00
2018-02-22T03:18:09.526Z,0.00
2018-02-22T03:19:09.534Z,0.00
2018-02-22T03:20:09.535Z,0.00
2018-02-22T03:21:09.535Z,0.00
2018-02-22T03:22:09.541Z,0.00
2018-02-22T03:23:09.544Z,0.00
2018-02-22T03:24:10.340Z,0.00
2018-02-22T03:25:09.572Z,0.00
2018-02-22T03:26:09.590Z,0.00
2018-02-22T03:27:09.561Z,0.00
2018-02-22T03:28:09.571Z,0.00
2018-02-22T03:29:09.571Z,0.00
2018-02-22T03:30:09.583Z,0.00
2018-02-22T03:31:09.586Z,0.00
2018-02-22T03:32:09.578Z,0.00
2018-02-22T03:33:09.603Z,0.00
2018-02-22T03:34:09.598Z,0.00
2018-02-22T03:35:09.586Z,0.00
2018-02-22T03:36:09.596Z,0.00
2018-02-22T03:37:09.612Z,0.00
2018-02-22T03:38:09.592Z,0.00
2018-02-22T03:39:09.622Z,0.00
2018-02-22T03:40:09.622Z,0.00
2018-02-22T03:41:09.628Z,0.00
2018-02-22T03:42:09.674Z,0.00
2018-02-22T03:43:09.650Z,0.00
2018-02-22T03:44:09.620Z,0.00
2018-02-22T03:45:09.669Z,0.00
2018-02-22T03:46:09.621Z,0.00
2018-02-22T03:47:09.618Z,0.00
2018-02-22T03:48:09.648Z,0.00
2018-02-22T03:49:09.631Z,0.00
2018-02-22T03:50:09.629Z,0.00
2018-02-22T03:51:09.654Z,0.00
2018-02-22T03:52:09.651Z,0.00
2018-02-22T03:53:09.714Z,0.00
2018-02-22T03:54:09.657Z,0.00
2018-02-22T03:55:09.684Z,0.00
2018-02-22T03:56:09.679Z,0.00
2018-02-22T03:57:09.666Z,0.00
2018-02-22T03:58:09.730Z,0.00
2018-02-22T03:59:09.685Z,0.00
2018-02-22T04:00:09.670Z,0.00
2018-02-22T04:01:09.694Z,0.00
2018-02-22T04:02:09.696Z,0.00
2018-02-22T04:03:09.698Z,0.00
2018-02-22T04:04:09.734Z,0.00
2018-02-22T04:05:09.755Z,0.00
2018-02-22T04:06:09.696Z,0.00
2018-02-22T04:07:09.695Z,0.00
2018-02-22T04:08:09.711Z,0.00
2018-02-22T04:09:09.705Z,0.00
2018-02-22T04:10:09.707Z,0.00
2018-02-22T04:11:09.767Z,0.00
2018-02-22T04:12:09.713Z,0.00
2018-02-22T04:13:09.804Z,0.00
2018-02-22T04:14:09.726Z,0.00
2018-02-22T04:15:09.761Z,0.00
2018-02-22T04:16:09.723Z,0.00
2018-02-22T04:17:09.774Z,0.00
2018-02-22T04:18:09.772Z,0.00
2018-02-22T04:19:09.753Z,0.00
2018-02-22T04:20:09.759Z,0.00
2018-02-22T04:21:09.734Z,0.00
2018-02-22T04:22:09.747Z,0.00
2018-02-22T04:23:09.767Z,0.00
2018-02-22T04:24:09.760Z,0.00
2018-02-22T04:25:09.761Z,0.00
2018-02-22T04:26:09.813Z,0.00
2018-02-22T04:27:09.785Z,0.00
2018-02-22T04:28:09.762Z,0.00
2018-02-22T04:29:09.768Z,0.00
2018-02-22T04:30:09.769Z,0.00
2018-02-22T04:31:09.784Z,0.00
2018-02-22T04:32:09.780Z,0.00
2018-02-22T04:33:09.780Z,0.00
2018-02-22T04:34:09.788Z,0.00
2018-02-22T04:35:09.788Z,0.00
2018-02-22T04:36:09.799Z,0.00
2018-02-22T04:37:09.809Z,0.00
2018-02-22T04:38:09.802Z,0.00
2018-02-22T04:39:09.803Z,0.00
2018-02-22T04:40:09.825Z,0.00
2018-02-22T04:41:09.825Z,0.00
2018-02-22T04:42:09.838Z,0.00
2018-02-22T04:43:09.815Z,0.00
2018-02-22T04:44:09.896Z,0.00
2018-02-22T04:45:09.838Z,0.00
2018-02-22T04:46:09.875Z,0.00
2018-02-22T04:47:09.868Z,0.00
2018-02-22T04:48:09.846Z,0.00
2018-02-22T04:49:09.858Z,0.00
2018-02-22T04:50:09.841Z,0.00
2018-02-22T04:51:09.844Z,0.00
2018-02-22T04:52:09.850Z,0.00
2018-02-22T04:53:09.848Z,0.00
2018-02-22T04:54:09.863Z,0.00
2018-02-22T04:55:09.862Z,0.00
2018-02-22T04:56:09.881Z,0.00
2018-02-22T04:57:09.890Z,0.00
2018-02-22T04:58:09.863Z,0.00
2018-02-22T04:59:09.883Z,0.00
2018-02-22T05:00:09.915Z,0.00
2018-02-22T05:01:09.884Z,0.00
2018-02-22T05:02:09.885Z,0.00
2018-02-22T05:03:09.895Z,0.00
2018-02-22T05:04:09.980Z,0.00
2018-02-22T05:05:09.890Z,0.00
2018-02-22T05:06:09.906Z,0.00
2018-02-22T05:07:09.896Z,0.00
2018-02-22T05:08:09.903Z,0.00
2018-02-22T05:09:09.912Z,0.00
2018-02-22T05:10:09.920Z,0.00
2018-02-22T05:11:09.929Z,0.00
2018-02-22T05:12:09.934Z,0.00
2018-02-22T05:13:09.929Z,0.00
2018-02-22T05:14:09.944Z,0.00
2018-02-22T05:15:09.919Z,0.00
2018-02-22T05:16:09.922Z,0.00
2018-02-22T05:17:10.026Z,0.00
2018-02-22T05:18:09.930Z,0.00
2018-02-22T05:19:09.942Z,0.00
2018-02-22T05:20:09.993Z,0.00
2018-02-22T05:21:09.946Z,0.00
2018-02-22T05:22:09.954Z,0.00
2018-02-22T05:23:09.967Z,0.00
2018-02-22T05:24:09.963Z,0.00
2018-02-22T05:25:09.985Z,0.00
2018-02-22T05:26:09.951Z,0.00
2018-02-22T05:27:09.991Z,0.00
2018-02-22T05:28:10.001Z,0.00
2018-02-22T05:29:10.002Z,0.00
2018-02-22T05:30:09.996Z,0.00
2018-02-22T05:31:09.992Z,0.00
2018-02-22T05:32:09.995Z,0.00
2018-02-22T05:33:10.003Z,0.00
2018-02-22T05:34:09.979Z,0.00
2018-02-22T05:35:09.984Z,0.00
2018-02-22T05:36:09.995Z,0.00
2018-02-22T05:37:10.014Z,0.00
2018-02-22T05:38:10.009Z,0.00
2018-02-22T05:39:10.017Z,0.00
2018-02-22T05:40:10.032Z,0.00
2018-02-22T05:41:10.037Z,0.00
2018-02-22T05:42:10.042Z,0.00
2018-02-22T05:43:10.015Z,0.00
2018-02-22T05:44:10.054Z,0.00
2018-02-22T05:45:10.046Z,0.00
2018-02-22T05:46:10.034Z,0.00
2018-02-22T05:47:10.028Z,0.00
2018-02-22T05:48:10.031Z,4.00
2018-02-22T05:49:10.070Z,0.00
2018-02-22T05:50:10.047Z,0.00
2018-02-22T05:51:10.056Z,0.00
2018-02-22T05:52:10.080Z,4.00
2018-02-22T05:53:10.134Z,0.00
2018-02-22T05:54:10.063Z,4.00
2018-02-22T05:55:10.060Z,0.00
2018-02-22T05:56:10.063Z,0.00
2018-02-22T05:57:10.111Z,4.00
2018-02-22T05:58:10.120Z,4.00
2018-02-22T05:59:10.106Z,4.00
2018-02-22T06:00:10.082Z,4.00
2018-02-22T06:01:10.085Z,4.00
2018-02-22T06:02:10.090Z,4.00
2018-02-22T06:03:10.114Z,8.00
2018-02-22T06:04:10.111Z,8.00
2018-02-22T06:05:10.108Z,12.00
2018-02-22T06:06:10.120Z,12.00
2018-02-22T06:07:10.118Z,12.00
2018-02-22T06:08:10.134Z,16.00
2018-02-22T06:09:10.137Z,20.00
2018-02-22T06:10:10.146Z,24.00
2018-02-22T06:11:10.153Z,28.00
2018-02-22T06:12:10.113Z,28.00
2018-02-22T06:13:10.107Z,36.00
2018-02-22T06:14:10.168Z,44.00
2018-02-22T06:15:10.130Z,48.00
2018-02-22T06:16:10.123Z,56.00
2018-02-22T06:17:10.185Z,68.00
2018-02-22T06:18:10.142Z,72.00
2018-02-22T06:19:10.135Z,88.00
2018-02-22T06:20:10.149Z,96.00
2018-02-22T06:21:10.297Z,112.00
2018-02-22T06:22:10.155Z,128.00
2018-02-22T06:23:10.174Z,140.00
2018-02-22T06:24:10.260Z,156.00
2018-02-22T06:25:10.176Z,172.00
2018-02-22T06:26:10.154Z,196.00
2018-02-22T06:27:10.174Z,216.00
2018-02-22T06:28:10.370Z,236.00
2018-02-22T06:29:10.179Z,264.00
2018-02-22T06:30:10.203Z,288.00
2018-02-22T06:31:10.169Z,316.00
2018-02-22T06:32:10.179Z,340.00
2018-02-22T06:33:10.225Z,372.00
2018-02-22T06:34:10.204Z,404.00
2018-02-22T06:35:10.207Z,444.00
2018-02-22T06:36:10.212Z,472.00
2018-02-22T06:37:10.228Z,508.00
2018-02-22T06:38:10.208Z,544.00
2018-02-22T06:39:10.198Z,584.00
2018-02-22T06:40:10.281Z,620.00
2018-02-22T06:41:10.206Z,672.00
2018-02-22T06:42:10.218Z,720.00
2018-02-22T06:43:10.313Z,780.00
2018-02-22T06:44:10.244Z,824.00
2018-02-22T06:45:10.270Z,872.00
2018-02-22T06:46:10.243Z,924.00
2018-02-22T06:47:10.242Z,976.00
2018-02-22T06:48:10.240Z,1048.00
2018-02-22T06:49:10.224Z,1092.00
2018-02-22T06:50:10.231Z,1152.00
2018-02-22T06:51:10.233Z,1216.00
2018-02-22T06:52:10.237Z,1276.00
2018-02-22T06:53:10.255Z,1336.00
2018-02-22T06:54:10.380Z,1400.00
2018-02-22T06:55:10.246Z,1464.00
2018-02-22T06:56:10.279Z,1528.00
2018-02-22T06:57:10.259Z,1596.00
2018-02-22T06:58:10.368Z,1656.00
2018-02-22T06:59:10.280Z,1732.00
2018-02-22T07:00:10.331Z,1808.00
2018-02-22T07:01:10.338Z,1892.00
2018-02-22T07:02:10.286Z,1936.00
2018-02-22T07:03:10.270Z,2000.00
2018-02-22T07:04:10.306Z,2064.00
2018-02-22T07:05:10.308Z,2140.00
2018-02-22T07:06:10.284Z,2208.00
2018-02-22T07:07:10.280Z,2276.00
2018-02-22T07:08:10.303Z,2352.00
2018-02-22T07:09:10.297Z,2424.00
2018-02-22T07:10:10.299Z,2520.00
2018-02-22T07:11:10.303Z,2580.00
2018-02-22T07:12:10.305Z,2684.00
2018-02-22T07:13:10.318Z,2720.00
2018-02-22T07:14:10.310Z,2804.00
2018-02-22T07:15:10.426Z,2876.00
2018-02-22T07:16:10.318Z,2944.00
2018-02-22T07:17:10.319Z,3040.00
2018-02-22T07:18:10.316Z,3100.00
2018-02-22T07:19:10.333Z,3180.00
2018-02-22T07:20:10.351Z,3260.00
2018-02-22T07:21:10.360Z,3344.00
2018-02-22T07:22:10.361Z,3420.00
2018-02-22T07:23:16.788Z,3484.00
2018-02-22T07:24:10.342Z,3568.00
2018-02-22T07:25:10.345Z,3636.00
2018-02-22T07:26:10.346Z,3712.00
2018-02-22T07:27:10.347Z,3792.00
2018-02-22T07:28:10.405Z,3848.00
2018-02-22T07:29:10.370Z,3920.00
2018-02-22T07:30:10.408Z,4060.00
2018-02-22T07:31:10.400Z,4092.00
2018-02-22T07:32:10.401Z,4184.00
2018-02-22T07:33:10.386Z,4288.00
2018-02-22T07:34:10.419Z,4360.00
2018-02-22T07:35:10.403Z,4460.00
2018-02-22T07:36:10.395Z,4540.00
2018-02-22T07:37:10.382Z,4576.00
2018-02-22T07:38:10.423Z,4652.00
2018-02-22T07:39:10.437Z,4800.00
2018-02-22T07:40:10.423Z,4852.00
2018-02-22T07:41:10.423Z,4924.00
2018-02-22T07:42:10.413Z,4956.00
2018-02-22T07:43:10.437Z,5000.00
2018-02-22T07:44:10.439Z,5020.00
2018-02-22T07:45:10.431Z,5084.00
2018-02-22T07:46:10.467Z,5148.00
2018-02-22T07:47:10.414Z,5228.00
2018-02-22T07:48:10.446Z,5316.00
2018-02-22T07:49:10.423Z,5368.00
2018-02-22T07:50:10.436Z,5432.00
2018-02-22T07:51:10.519Z,5520.00
2018-02-22T07:52:10.431Z,7212.00
2018-02-22T07:53:10.453Z,10556.00
2018-02-22T07:54:10.440Z,16224.00
2018-02-22T07:55:10.459Z,21920.00
2018-02-22T07:56:10.477Z,26624.00
2018-02-22T07:57:10.467Z,29632.00
2018-02-22T07:58:10.478Z,31200.00
2018-02-22T07:59:10.464Z,32416.00
2018-02-22T08:00:10.528Z,34368.00
2018-02-22T08:01:10.471Z,34112.00
2018-02-22T08:02:10.486Z,35520.00
2018-02-22T08:03:10.500Z,37696.00
2018-02-22T08:04:10.540Z,37088.00
2018-02-22T08:05:10.510Z,35776.00
2018-02-22T08:06:10.505Z,35104.00
2018-02-22T08:07:10.515Z,36512.00
2018-02-22T08:08:10.555Z,38528.00
2018-02-22T08:09:10.561Z,38240.00
2018-02-22T08:10:10.554Z,40800.00
2018-02-22T08:11:10.541Z,41888.00
2018-02-22T08:12:10.549Z,38720.00
2018-02-22T08:13:10.576Z,43776.00
2018-02-22T08:14:10.557Z,52768.00
2018-02-22T08:15:10.638Z,53408.00
2018-02-22T08:16:10.567Z,51616.00
2018-02-22T08:17:10.596Z,50816.00
2018-02-22T08:18:10.593Z,49216.00
2018-02-22T08:19:11.332Z,44448.00
2018-02-22T08:20:10.697Z,41600.00
2018-02-22T08:21:10.639Z,40928.00
2018-02-22T08:22:10.611Z,38816.00
2018-02-22T08:23:10.671Z,40576.00
2018-02-22T08:24:10.655Z,45888.00
2018-02-22T08:25:10.652Z,44896.00
2018-02-22T08:26:10.686Z,41184.00
2018-02-22T08:27:10.669Z,43616.00
2018-02-22T08:28:10.687Z,46880.00
2018-02-22T08:29:10.707Z,48160.00
2018-02-22T08:30:10.712Z,46560.00
2018-02-22T08:31:10.705Z,40608.00
2018-02-22T08:32:10.855Z,36416.00
2018-02-22T08:33:10.763Z,32768.00
2018-02-22T08:34:10.739Z,30688.00
2018-02-22T08:35:10.752Z,30688.00
2018-02-22T08:36:10.760Z,31776.00
2018-02-22T08:37:10.785Z,41632.00
2018-02-22T08:38:10.786Z,53216.00
2018-02-22T08:39:10.836Z,49824.00
2018-02-22T08:40:10.808Z,44768.00
2018-02-22T08:41:10.832Z,50592.00
2018-02-22T08:42:11.031Z,55584.00
2018-02-22T08:43:10.842Z,57472.00
2018-02-22T08:44:10.871Z,58688.00
2018-02-22T08:45:10.870Z,60640.00
2018-02-22T08:46:10.909Z,59328.00
2018-02-22T08:47:10.922Z,56224.00
2018-02-22T08:48:10.933Z,54752.00
2018-02-22T08:49:10.935Z,57216.00
2018-02-22T08:50:10.958Z,58720.00
2018-02-22T08:51:10.934Z,54496.00
2018-02-22T08:52:10.967Z,55808.00
2018-02-22T08:53:10.974Z,61664.00
2018-02-22T08:54:10.992Z,66112.00
2018-02-22T08:55:10.985Z,62400.00
2018-02-22T08:56:10.998Z,62112.00
2018-02-22T08:57:11.052Z,60640.00
2018-02-22T08:58:11.072Z,61600.00
2018-02-22T08:59:11.043Z,60672.00
2018-02-22T09:00:11.079Z,60864.00
2018-02-22T09:01:11.086Z,62496.00
2018-02-22T09:02:11.098Z,61376.00
2018-02-22T09:03:11.116Z,60128.00
2018-02-22T09:04:11.107Z,61888.00
2018-02-22T09:05:11.148Z,62720.00
2018-02-22T09:06:11.134Z,63136.00
2018-02-22T09:07:11.144Z,68640.00
2018-02-22T09:08:11.158Z,70560.00
2018-02-22T09:09:11.215Z,67360.00
2018-02-22T09:10:11.192Z,65952.00
2018-02-22T09:11:11.236Z,66272.00
2018-02-22T09:12:11.228Z,67968.00
2018-02-22T09:13:11.258Z,70432.00
2018-02-22T09:14:11.280Z,69920.00
2018-02-22T09:15:11.266Z,70528.00
2018-02-22T09:16:11.276Z,68000.00
2018-02-22T09:17:11.350Z,69248.00
2018-02-22T09:18:11.308Z,73120.00
2018-02-22T09:19:11.325Z,74688.00
2018-02-22T09:20:11.335Z,75264.00
2018-02-22T09:21:11.343Z,71104.00
2018-02-22T09:22:11.368Z,67584.00
2018-02-22T09:23:11.393Z,70016.00
2018-02-22T09:24:11.419Z,72832.00
2018-02-22T09:25:11.455Z,71552.00
2018-02-22T09:26:11.478Z,70752.00
2018-02-22T09:27:11.434Z,70656.00
2018-02-22T09:28:11.457Z,68832.00
2018-02-22T09:29:11.525Z,65696.00
2018-02-22T09:30:11.490Z,68448.00
2018-02-22T09:31:11.554Z,68640.00
2018-02-22T09:32:11.519Z,73792.00
2018-02-22T09:33:11.526Z,75104.00
2018-02-22T09:34:11.555Z,73920.00
2018-02-22T09:35:11.557Z,74560.00
2018-02-22T09:36:11.568Z,73792.00
2018-02-22T09:37:11.656Z,71648.00
2018-02-22T09:38:11.642Z,72352.00
2018-02-22T09:39:11.623Z,76352.00
2018-02-22T09:40:11.635Z,74944.00
2018-02-22T09:41:11.660Z,72800.00
2018-02-22T09:42:11.707Z,76352.00
2018-02-22T09:43:11.708Z,75872.00
2018-02-22T09:44:11.697Z,77376.00
2018-02-22T09:45:11.716Z,78464.00
2018-02-22T09:46:11.747Z,81216.00
2018-02-22T09:47:11.760Z,79264.00
2018-02-22T09:48:11.763Z,80992.00
2018-02-22T09:49:11.795Z,81856.00
2018-02-22T09:50:11.795Z,72768.00
2018-02-22T09:51:11.807Z,77152.00
2018-02-22T09:52:11.841Z,83040.00
2018-02-22T09:53:11.848Z,83744.00
2018-02-22T09:54:11.868Z,80896.00
2018-02-22T09:55:11.897Z,81216.00
2018-02-22T09:56:11.920Z,83584.00
2018-02-22T09:57:11.931Z,82176.00
2018-02-22T09:58:11.936Z,79712.00
2018-02-22T09:59:11.947Z,82016.00
2018-02-22T10:00:11.981Z,80128.00
2018-02-22T10:01:11.978Z,77792.00
2018-02-22T10:02:12.050Z,79584.00
2018-02-22T10:03:12.010Z,82880.00
2018-02-22T10:04:12.054Z,81344.00
2018-02-22T10:05:12.038Z,84704.00
2018-02-22T10:06:12.073Z,85760.00
2018-02-22T10:07:12.072Z,83456.00
2018-02-22T10:08:12.092Z,83456.00
2018-02-22T10:09:12.152Z,84576.00
2018-02-22T10:10:12.127Z,88896.00
2018-02-22T10:11:12.163Z,87328.00
2018-02-22T10:12:12.149Z,85408.00
2018-02-22T10:13:12.230Z,88032.00
2018-02-22T10:14:12.186Z,88096.00
2018-02-22T10:15:12.201Z,85824.00
2018-02-22T10:16:12.222Z,86944.00
2018-02-22T10:17:12.257Z,86336.00
2018-02-22T10:18:12.265Z,85152.00
2018-02-22T10:19:12.280Z,84704.00
2018-02-22T10:20:12.328Z,88384.00
2018-02-22T10:21:12.329Z,90496.00
2018-02-22T10:22:12.375Z,88352.00
2018-02-22T10:23:12.358Z,85056.00
2018-02-22T10:24:12.406Z,89504.00
2018-02-22T10:25:12.409Z,88832.00
2018-02-22T10:26:12.393Z,89088.00
2018-02-22T10:27:12.408Z,86560.00
2018-02-22T10:28:12.434Z,86752.00
2018-02-22T10:29:12.445Z,85888.00
2018-02-22T10:30:12.482Z,88096.00
2018-02-22T10:31:12.480Z,91040.00
2018-02-22T10:32:12.515Z,93632.00
2018-02-22T10:33:12.526Z,91200.00
2018-02-22T10:34:12.536Z,88416.00
2018-02-22T10:35:12.560Z,90496.00
2018-02-22T10:36:12.614Z,87872.00
2018-02-22T10:37:12.599Z,88512.00
2018-02-22T10:38:12.612Z,89536.00
2018-02-22T10:39:12.623Z,90528.00
2018-02-22T10:40:12.668Z,91136.00
2018-02-22T10:41:12.694Z,89984.00
2018-02-22T10:42:12.679Z,91648.00
2018-02-22T10:43:12.692Z,90304.00
2018-02-22T10:44:12.710Z,89760.00
2018-02-22T10:45:12.720Z,90208.00
2018-02-22T10:46:12.769Z,93376.00
2018-02-22T10:47:12.791Z,94560.00
2018-02-22T10:48:12.809Z,90944.00
2018-02-22T10:49:12.807Z,91200.00
2018-02-22T10:50:12.817Z,92416.00
2018-02-22T10:51:12.846Z,91008.00
2018-02-22T10:52:12.854Z,92192.00
2018-02-22T10:53:12.872Z,93376.00
2018-02-22T10:54:12.880Z,92992.00
2018-02-22T10:55:12.955Z,90112.00
2018-02-22T10:56:12.983Z,87840.00
2018-02-22T10:57:12.978Z,89504.00
2018-02-22T10:58:12.961Z,94144.00
2018-02-22T10:59:12.972Z,96608.00
2018-02-22T11:00:13.024Z,92992.00
2018-02-22T11:01:13.060Z,91616.00
2018-02-22T11:02:13.022Z,92288.00
2018-02-22T11:03:13.057Z,89120.00
2018-02-22T11:04:13.066Z,88160.00
2018-02-22T11:05:13.123Z,88352.00
2018-02-22T11:06:13.116Z,92800.00
2018-02-22T11:07:13.179Z,92992.00
2018-02-22T11:08:13.145Z,93952.00
2018-02-22T11:09:13.153Z,94560.00
2018-02-22T11:10:13.184Z,95840.00
2018-02-22T11:11:13.194Z,93216.00
2018-02-22T11:12:13.208Z,94080.00
2018-02-22T11:13:13.231Z,96864.00
2018-02-22T11:14:13.239Z,95392.00
2018-02-22T11:15:13.252Z,95424.00
2018-02-22T11:16:13.326Z,95360.00
2018-02-22T11:17:13.313Z,92320.00
2018-02-22T11:18:13.337Z,96480.00
2018-02-22T11:19:13.342Z,96416.00
2018-02-22T11:20:13.345Z,92896.00
2018-02-22T11:21:13.359Z,96160.00
2018-02-22T11:22:13.388Z,93696.00
2018-02-22T11:23:13.417Z,94688.00
2018-02-22T11:24:13.436Z,93696.00
2018-02-22T11:25:13.440Z,92704.00
2018-02-22T11:26:13.471Z,95840.00
2018-02-22T11:27:13.479Z,96704.00
2018-02-22T11:28:13.510Z,96544.00
2018-02-22T11:29:13.531Z,91648.00
2018-02-22T11:30:13.546Z,94304.00
2018-02-22T11:31:13.546Z,91296.00
2018-02-22T11:32:13.555Z,91776.00
2018-02-22T11:33:13.581Z,93312.00
2018-02-22T11:34:13.626Z,93376.00
2018-02-22T11:35:13.631Z,93504.00
2018-02-22T11:36:13.649Z,90272.00
2018-02-22T11:37:13.680Z,86720.00
2018-02-22T11:38:13.683Z,75136.00
2018-02-22T11:39:13.711Z,88608.00
2018-02-22T11:40:13.728Z,91360.00
2018-02-22T11:41:13.737Z,92992.00
2018-02-22T11:42:13.744Z,90464.00
2018-02-22T11:43:13.835Z,90816.00
2018-02-22T11:44:13.787Z,94592.00
2018-02-22T11:45:13.824Z,93696.00
2018-02-22T11:46:13.858Z,87776.00
2018-02-22T11:47:13.860Z,85952.00
2018-02-22T11:48:13.876Z,90560.00
2018-02-22T11:49:13.889Z,92384.00
2018-02-22T11:50:13.944Z,87200.00
2018-02-22T11:51:14.039Z,86976.00
2018-02-22T11:52:13.934Z,88864.00
2018-02-22T11:53:14.049Z,95808.00
2018-02-22T11:54:13.967Z,97824.00
2018-02-22T11:55:14.020Z,89312.00
2018-02-22T11:56:14.055Z,89152.00
2018-02-22T11:57:14.036Z,90112.00
2018-02-22T11:58:14.932Z,91392.00
2018-02-22T11:59:14.063Z,91168.00
2018-02-22T12:00:14.089Z,88640.00
2018-02-22T12:01:14.106Z,87616.00
2018-02-22T12:02:14.113Z,86496.00
2018-02-22T12:03:14.122Z,87744.00
2018-02-22T12:04:14.197Z,89984.00
2018-02-22T12:05:14.185Z,92576.00
2018-02-22T12:06:14.187Z,90624.00
2018-02-22T12:07:14.214Z,90304.00
2018-02-22T12:08:14.224Z,87360.00
2018-02-22T12:09:14.252Z,89312.00
2018-02-22T12:10:14.259Z,88128.00
2018-02-22T12:11:14.272Z,87776.00
2018-02-22T12:12:14.326Z,90848.00
2018-02-22T12:13:14.342Z,89088.00
2018-02-22T12:14:14.635Z,90752.00
2018-02-22T12:15:14.348Z,90144.00
2018-02-22T12:16:14.435Z,87680.00
2018-02-22T12:17:14.384Z,88576.00
2018-02-22T12:18:14.524Z,90848.00
2018-02-22T12:19:14.426Z,86752.00
2018-02-22T12:20:14.486Z,86304.00
2018-02-22T12:21:14.484Z,91008.00
2018-02-22T12:22:14.491Z,85376.00
2018-02-22T12:23:14.560Z,81184.00
2018-02-22T12:24:14.537Z,89472.00
2018-02-22T12:25:14.535Z,92128.00
2018-02-22T12:26:14.562Z,88096.00
2018-02-22T12:27:14.578Z,88032.00
2018-02-22T12:28:14.661Z,83264.00
2018-02-22T12:29:14.673Z,87360.00
2018-02-22T12:30:14.681Z,84704.00
2018-02-22T12:31:14.690Z,86272.00
2018-02-22T12:32:14.684Z,90240.00